Карточка аэропорта UAKK

Внимание!
Информация на этой странице в стадии наполнения.
Если вы не увидели какой-то информации, или заметили неточность - пожалуйста сообщите нам!
Спасибо!
Команда RU-STAFF
Название аэропортаКараганда
Название аэропорта (англ.)Karaganda
Превышение1768 ft. (538.9 m.)
Координаты49°40.302', 73°20.118'
Высота перехода10000ft
Эшелон переходаFL120, QNH<733:FL130
Коды ответчика0630-0637, 7220-7227
Зона ОрВДАстана РПИ (UACN)
Данные METARUAKK 130500Z 10004MPS 070V140 CAVOK 27/15 Q1003 NOSIG RMK QFE705/0941
Проноз погоды (TAF)UAKK 122327Z 1300/1324 11005MPS 9999 SCT040 SCT100 TX28/1309Z TN13/1301Z TEMPO 1300/1304 VRB02MPS SCT030CB TEMPO 1306/1312 14011MPS 5000 -SHRA BKN030CB BECMG 1312/1314 21008MPS
NOTAMshow/hide NOTAM
AWOS   TABLE

Информация о ВПП

ВПП Длина ВПП (м.) Покрытие Курс ВПП Частота ILS
053601Железобетон50109.9
233601Железобетон230111.7

Диспетчерские позиции




Спутниковое изображение